| State | Missouri | Latest | Poor (0 cfs) | |
| River | Black River | Rating | Observed | Estimated |
| Updated | 2025-11-28 13:30 (5 months ago) | Flood - The river is flooding. Obstacles can be treacherous or deadly. The river should be avoided at this stage for casual trips and definitely for the inexperienced. Trips should be attempted only with protective gear and equipment.Flood | (none) | 4725 |
| Discharge | (none) (median: 2730 cfs) | High - The river is high and potentially dangerous, especially for the young and / or inexperienced. Normal stream obstacles are sometimes difficult to navigate. Extended distances can be attempted, but canoe travel may not be advisable.High | (none) | 2565 |
| Height | (none) | Good - Conditions are ideal for a canoe or kayak. Boats typically will drag on fewer than one-quarter of riffles, if at all, and portages are unnecessary or rare. Normal float lengths can be attempted without a problem.Good | (none) | 1529 |
| Trend | Steady (steady over 24 hours) | Low - River is low but can still be floated. Some riffles are okay but most come with significant dragging and might need a portage. Float lengths should be reduced to accommodate low flow, dragging, and portages.Low | (none) | 627 |
| USGS | USGS Site ( Duck Duck Go Maps) | Poor - River is too low to float comfortably. Most or all riffles will drag or must be portaged and some obstacles (such as slick shelf rock) cause undue problems. Avoid the river at this stage for casual paddling trips.Poor | (none) | 314 |
There are no discharge data to display!
A total of 1 rows are displayed.
| Miles | 2.7 |
| Trips | 1 |
| People | 1 |
| Dates | 1 |
| Years | 1 |
| Months | 1 |
| Rows | 1 |
| Sources | 1 |
BLG - Bluegill
CCF - Channel Catfish
CP - Chain Pickerel
FWD - Freshwater Drum
GSF - Green Sunfish
KSB - Kentucky Spotted Bass
LMB - Largemouth Bass
LSF - Longear Sunfish
RB - Rock Bass / Goggle Eye
RSF - Redear Sunfish
RT - Rainbow Trout
SMB - Smallmouth Bass
WB - White Bass
WF - Whitefish
WL - WalleyeThe classic River Trips application is still available for use. It is updated with the new system using a data retrofit. It is no longer maintained. The original River Trips application is no longer updated (as of 1 Dec 2016) but can be checked for errors or for the condition of the data before it was converted to the new system.
| Observation | Height | Discharge | Maximum Discharge | Minimum Discharge | Mean Discharge | P05 | P10 | P20 | P25 | P50 (Median) | P75 | P80 | P90 | P95 |
|---|---|---|---|---|---|---|---|---|---|---|---|---|---|---|
| 2025-11-28 13:30 | 4920 (2016) | 369 (2018) | 1500 | 398 | 473 | 487 | 995 | 1950 | 3550 | 4250 | ||||
| 2025-11-27 14:30 | 3650 (2016) | 421 (2017) | 1410 | 426 | 442 | 477 | 954 | 1990 | 3560 | 3640 | ||||
| 2025-11-27 13:30 | 3650 (2016) | 421 (2017) | 1410 | 426 | 442 | 477 | 954 | 1990 | 3560 | 3640 | ||||
| 2025-11-27 12:30 | 3650 (2016) | 421 (2017) | 1410 | 426 | 442 | 477 | 954 | 1990 | 3560 | 3640 | ||||
| 2025-11-27 11:30 | 3650 (2016) | 421 (2017) | 1410 | 426 | 442 | 477 | 954 | 1990 | 3560 | 3640 | ||||
| 2025-11-26 14:30 | 3680 (2016) | 429 (2017) | 1410 | 443 | 460 | 466 | 917 | 2010 | 3580 | 3660 | ||||
| 2025-11-26 13:30 | 3680 (2016) | 429 (2017) | 1410 | 443 | 460 | 466 | 917 | 2010 | 3580 | 3660 | ||||
| 2025-11-26 12:30 | 3680 (2016) | 429 (2017) | 1410 | 443 | 460 | 466 | 917 | 2010 | 3580 | 3660 | ||||
| 2025-11-26 11:30 | 3680 (2016) | 429 (2017) | 1410 | 443 | 460 | 466 | 917 | 2010 | 3580 | 3660 | ||||
| 2025-11-25 11:30 | 3720 (2016) | 441 (2017) | 1320 | 448 | 462 | 464 | 727 | 1810 | 3180 | 3650 | ||||
| 2025-11-20 20:30 | 3610 (2010) | 353 (2017) | 1050 | 356 | 394 | 399 | 514 | 1260 | 1640 | 3490 | ||||
| 2025-11-20 19:30 | 3610 (2010) | 353 (2017) | 1050 | 356 | 394 | 399 | 514 | 1260 | 1640 | 3490 | ||||
| 2025-11-20 18:30 | 3610 (2010) | 353 (2017) | 1050 | 356 | 394 | 399 | 514 | 1260 | 1640 | 3490 | ||||
| 2025-11-20 17:30 | 3610 (2010) | 353 (2017) | 1050 | 356 | 394 | 399 | 514 | 1260 | 1640 | 3490 | ||||
| 2025-11-20 16:30 | 3610 (2010) | 353 (2017) | 1050 | 356 | 394 | 399 | 514 | 1260 | 1640 | 3490 | ||||
| 2025-11-20 15:30 | 3610 (2010) | 353 (2017) | 1050 | 356 | 394 | 399 | 514 | 1260 | 1640 | 3490 | ||||
| 2025-11-20 14:30 | 3610 (2010) | 353 (2017) | 1050 | 356 | 394 | 399 | 514 | 1260 | 1640 | 3490 | ||||
| 2025-11-20 13:30 | 3610 (2010) | 353 (2017) | 1050 | 356 | 394 | 399 | 514 | 1260 | 1640 | 3490 | ||||
| 2025-11-20 12:30 | 3610 (2010) | 353 (2017) | 1050 | 356 | 394 | 399 | 514 | 1260 | 1640 | 3490 | ||||
| 2025-11-20 11:30 | 3610 (2010) | 353 (2017) | 1050 | 356 | 394 | 399 | 514 | 1260 | 1640 | 3490 | ||||
| 2025-11-20 10:30 | 3610 (2010) | 353 (2017) | 1050 | 356 | 394 | 399 | 514 | 1260 | 1640 | 3490 | ||||
| 2025-11-20 09:30 | 3610 (2010) | 353 (2017) | 1050 | 356 | 394 | 399 | 514 | 1260 | 1640 | 3490 | ||||
| 2025-11-20 08:30 | 3610 (2010) | 353 (2017) | 1050 | 356 | 394 | 399 | 514 | 1260 | 1640 | 3490 | ||||
| 2025-11-20 07:30 | 3610 (2010) | 353 (2017) | 1050 | 356 | 394 | 399 | 514 | 1260 | 1640 | 3490 | ||||
| 2025-11-20 06:30 | 3610 (2010) | 353 (2017) | 1050 | 356 | 394 | 399 | 514 | 1260 | 1640 | 3490 | ||||
| 2025-11-20 05:30 | 3610 (2010) | 353 (2017) | 1050 | 356 | 394 | 399 | 514 | 1260 | 1640 | 3490 | ||||
| 2025-11-20 04:30 | 3610 (2010) | 353 (2017) | 1050 | 356 | 394 | 399 | 514 | 1260 | 1640 | 3490 | ||||
| 2025-11-20 03:30 | 3610 (2010) | 353 (2017) | 1050 | 356 | 394 | 399 | 514 | 1260 | 1640 | 3490 | ||||
| 2025-11-20 02:30 | 3610 (2010) | 353 (2017) | 1050 | 356 | 394 | 399 | 514 | 1260 | 1640 | 3490 | ||||
| 2025-11-20 01:30 | 3610 (2010) | 353 (2017) | 1050 | 356 | 394 | 399 | 514 | 1260 | 1640 | 3490 | ||||
| 2025-11-20 00:30 | 3610 (2010) | 353 (2017) | 1050 | 356 | 394 | 399 | 514 | 1260 | 1640 | 3490 | ||||
| 2025-11-19 23:30 | 3610 (2010) | 353 (2017) | 1050 | 356 | 394 | 399 | 514 | 1260 | 1640 | 3490 | ||||
| 2025-11-19 22:30 | 3660 (2010) | 368 (2017) | 1050 | 368 | 394 | 410 | 562 | 1330 | 1790 | 3300 | ||||
| 2025-11-19 21:30 | 3660 (2010) | 368 (2017) | 1050 | 368 | 394 | 410 | 562 | 1330 | 1790 | 3300 | ||||
| 2025-11-19 20:30 | 3660 (2010) | 368 (2017) | 1050 | 368 | 394 | 410 | 562 | 1330 | 1790 | 3300 | ||||
| 2025-11-19 19:30 | 3660 (2010) | 368 (2017) | 1050 | 368 | 394 | 410 | 562 | 1330 | 1790 | 3300 | ||||
| 2025-11-19 18:30 | 3660 (2010) | 368 (2017) | 1050 | 368 | 394 | 410 | 562 | 1330 | 1790 | 3300 | ||||
| 2025-11-19 17:30 | 3660 (2010) | 368 (2017) | 1050 | 368 | 394 | 410 | 562 | 1330 | 1790 | 3300 | ||||
| 2025-11-19 16:30 | 3660 (2010) | 368 (2017) | 1050 | 368 | 394 | 410 | 562 | 1330 | 1790 | 3300 | ||||
| 2025-11-19 15:30 | 3660 (2010) | 368 (2017) | 1050 | 368 | 394 | 410 | 562 | 1330 | 1790 | 3300 | ||||
| 2025-11-19 14:30 | 3660 (2010) | 368 (2017) | 1050 | 368 | 394 | 410 | 562 | 1330 | 1790 | 3300 | ||||
| 2025-11-19 13:30 | 3660 (2010) | 368 (2017) | 1050 | 368 | 394 | 410 | 562 | 1330 | 1790 | 3300 | ||||
| 2025-11-19 12:30 | 3660 (2010) | 368 (2017) | 1050 | 368 | 394 | 410 | 562 | 1330 | 1790 | 3300 | ||||
| 2025-11-19 11:30 | 3660 (2010) | 368 (2017) | 1050 | 368 | 394 | 410 | 562 | 1330 | 1790 | 3300 | ||||
| 2025-11-19 10:30 | 3660 (2010) | 368 (2017) | 1050 | 368 | 394 | 410 | 562 | 1330 | 1790 | 3300 | ||||
| 2025-11-19 09:30 | 3660 (2010) | 368 (2017) | 1050 | 368 | 394 | 410 | 562 | 1330 | 1790 | 3300 | ||||
| 2025-11-19 08:30 | 3660 (2010) | 368 (2017) | 1050 | 368 | 394 | 410 | 562 | 1330 | 1790 | 3300 | ||||
| 2025-11-19 07:30 | 3660 (2010) | 368 (2017) | 1050 | 368 | 394 | 410 | 562 | 1330 | 1790 | 3300 | ||||
| 2025-11-19 06:30 | 3660 (2010) | 368 (2017) | 1050 | 368 | 394 | 410 | 562 | 1330 | 1790 | 3300 | ||||
| 2025-11-19 05:30 | 3660 (2010) | 368 (2017) | 1050 | 368 | 394 | 410 | 562 | 1330 | 1790 | 3300 | ||||
| 2025-11-19 04:30 | 3660 (2010) | 368 (2017) | 1050 | 368 | 394 | 410 | 562 | 1330 | 1790 | 3300 | ||||
| 2025-11-19 03:30 | 3660 (2010) | 368 (2017) | 1050 | 368 | 394 | 410 | 562 | 1330 | 1790 | 3300 | ||||
| 2025-11-19 02:30 | 3660 (2010) | 368 (2017) | 1050 | 368 | 394 | 410 | 562 | 1330 | 1790 | 3300 | ||||
| 2025-11-19 01:30 | 3660 (2010) | 368 (2017) | 1050 | 368 | 394 | 410 | 562 | 1330 | 1790 | 3300 | ||||
| 2025-11-19 00:30 | 3660 (2010) | 368 (2017) | 1050 | 368 | 394 | 410 | 562 | 1330 | 1790 | 3300 | ||||
| 2025-11-18 23:30 | 3660 (2010) | 368 (2017) | 1050 | 368 | 394 | 410 | 562 | 1330 | 1790 | 3300 | ||||
| 2025-11-18 22:30 | 5960 (2016) | 376 (2011) | 1290 | 385 | 396 | 450 | 580 | 1330 | 1790 | 4850 | ||||
| 2025-11-18 21:30 | 5960 (2016) | 376 (2011) | 1290 | 385 | 396 | 450 | 580 | 1330 | 1790 | 4850 | ||||
| 2025-11-18 20:30 | 5960 (2016) | 376 (2011) | 1290 | 385 | 396 | 450 | 580 | 1330 | 1790 | 4850 | ||||
| 2025-11-18 19:30 | 5960 (2016) | 376 (2011) | 1290 | 385 | 396 | 450 | 580 | 1330 | 1790 | 4850 | ||||
| 2025-11-18 18:30 | 5960 (2016) | 376 (2011) | 1290 | 385 | 396 | 450 | 580 | 1330 | 1790 | 4850 | ||||
| 2025-11-18 17:30 | 5960 (2016) | 376 (2011) | 1290 | 385 | 396 | 450 | 580 | 1330 | 1790 | 4850 | ||||
| 2025-11-18 16:30 | 5960 (2016) | 376 (2011) | 1290 | 385 | 396 | 450 | 580 | 1330 | 1790 | 4850 | ||||
| 2025-11-18 15:30 | 5960 (2016) | 376 (2011) | 1290 | 385 | 396 | 450 | 580 | 1330 | 1790 | 4850 | ||||
| 2025-11-18 14:30 | 5960 (2016) | 376 (2011) | 1290 | 385 | 396 | 450 | 580 | 1330 | 1790 | 4850 | ||||
| 2025-11-18 13:30 | 5960 (2016) | 376 (2011) | 1290 | 385 | 396 | 450 | 580 | 1330 | 1790 | 4850 | ||||
| 2025-11-18 12:30 | 5960 (2016) | 376 (2011) | 1290 | 385 | 396 | 450 | 580 | 1330 | 1790 | 4850 | ||||
| 2025-11-18 11:30 | 5960 (2016) | 376 (2011) | 1290 | 385 | 396 | 450 | 580 | 1330 | 1790 | 4850 | ||||
| 2025-11-18 10:30 | 5960 (2016) | 376 (2011) | 1290 | 385 | 396 | 450 | 580 | 1330 | 1790 | 4850 | ||||
| 2025-11-18 09:30 | 5960 (2016) | 376 (2011) | 1290 | 385 | 396 | 450 | 580 | 1330 | 1790 | 4850 | ||||
| 2025-11-18 08:30 | 5960 (2016) | 376 (2011) | 1290 | 385 | 396 | 450 | 580 | 1330 | 1790 | 4850 | ||||
| 2025-11-18 07:30 | 5960 (2016) | 376 (2011) | 1290 | 385 | 396 | 450 | 580 | 1330 | 1790 | 4850 | ||||
| 2025-11-18 06:30 | 5960 (2016) | 376 (2011) | 1290 | 385 | 396 | 450 | 580 | 1330 | 1790 | 4850 | ||||
| 2025-11-18 05:30 | 5960 (2016) | 376 (2011) | 1290 | 385 | 396 | 450 | 580 | 1330 | 1790 | 4850 | ||||
| 2025-11-18 04:30 | 5960 (2016) | 376 (2011) | 1290 | 385 | 396 | 450 | 580 | 1330 | 1790 | 4850 | ||||
| 2025-11-18 03:30 | 5960 (2016) | 376 (2011) | 1290 | 385 | 396 | 450 | 580 | 1330 | 1790 | 4850 | ||||
| 2025-11-18 02:30 | 5960 (2016) | 376 (2011) | 1290 | 385 | 396 | 450 | 580 | 1330 | 1790 | 4850 | ||||
| 2025-11-18 01:30 | 5960 (2016) | 376 (2011) | 1290 | 385 | 396 | 450 | 580 | 1330 | 1790 | 4850 | ||||
| 2025-11-18 00:30 | 5960 (2016) | 376 (2011) | 1290 | 385 | 396 | 450 | 580 | 1330 | 1790 | 4850 | ||||
| 2025-11-17 23:30 | 5960 (2016) | 376 (2011) | 1290 | 385 | 396 | 450 | 580 | 1330 | 1790 | 4850 | ||||
| 2025-11-17 22:30 | 3650 (2010) | 371 (2011) | 976 | 382 | 398 | 461 | 667 | 1280 | 1590 | 2690 | ||||
| 2025-11-17 21:30 | 3650 (2010) | 371 (2011) | 976 | 382 | 398 | 461 | 667 | 1280 | 1590 | 2690 | ||||
| 2025-11-17 20:30 | 3650 (2010) | 371 (2011) | 976 | 382 | 398 | 461 | 667 | 1280 | 1590 | 2690 | ||||
| 2025-11-17 19:30 | 3650 (2010) | 371 (2011) | 976 | 382 | 398 | 461 | 667 | 1280 | 1590 | 2690 | ||||
| 2025-11-17 18:30 | 3650 (2010) | 371 (2011) | 976 | 382 | 398 | 461 | 667 | 1280 | 1590 | 2690 | ||||
| 2025-11-17 17:30 | 3650 (2010) | 371 (2011) | 976 | 382 | 398 | 461 | 667 | 1280 | 1590 | 2690 | ||||
| 2025-11-17 16:30 | 3650 (2010) | 371 (2011) | 976 | 382 | 398 | 461 | 667 | 1280 | 1590 | 2690 | ||||
| 2025-11-17 15:30 | 3650 (2010) | 371 (2011) | 976 | 382 | 398 | 461 | 667 | 1280 | 1590 | 2690 | ||||
| 2025-11-17 14:30 | 3650 (2010) | 371 (2011) | 976 | 382 | 398 | 461 | 667 | 1280 | 1590 | 2690 | ||||
| 2025-11-17 13:30 | 3650 (2010) | 371 (2011) | 976 | 382 | 398 | 461 | 667 | 1280 | 1590 | 2690 | ||||
| 2025-11-17 12:30 | 3650 (2010) | 371 (2011) | 976 | 382 | 398 | 461 | 667 | 1280 | 1590 | 2690 | ||||
| 2025-11-17 11:30 | 3650 (2010) | 371 (2011) | 976 | 382 | 398 | 461 | 667 | 1280 | 1590 | 2690 | ||||
| 2025-11-17 10:30 | 3650 (2010) | 371 (2011) | 976 | 382 | 398 | 461 | 667 | 1280 | 1590 | 2690 | ||||
| 2025-11-17 09:30 | 3650 (2010) | 371 (2011) | 976 | 382 | 398 | 461 | 667 | 1280 | 1590 | 2690 | ||||
| 2025-11-17 08:30 | 3650 (2010) | 371 (2011) | 976 | 382 | 398 | 461 | 667 | 1280 | 1590 | 2690 | ||||
| 2025-11-17 07:30 | 3650 (2010) | 371 (2011) | 976 | 382 | 398 | 461 | 667 | 1280 | 1590 | 2690 | ||||
| 2025-11-17 06:30 | 3650 (2010) | 371 (2011) | 976 | 382 | 398 | 461 | 667 | 1280 | 1590 | 2690 | ||||
| 2025-11-17 05:30 | 3650 (2010) | 371 (2011) | 976 | 382 | 398 | 461 | 667 | 1280 | 1590 | 2690 | ||||
| 2025-11-17 04:30 | 3650 (2010) | 371 (2011) | 976 | 382 | 398 | 461 | 667 | 1280 | 1590 | 2690 | ||||
| 2025-11-17 03:30 | 3650 (2010) | 371 (2011) | 976 | 382 | 398 | 461 | 667 | 1280 | 1590 | 2690 | ||||
| 2025-11-17 02:30 | 3650 (2010) | 371 (2011) | 976 | 382 | 398 | 461 | 667 | 1280 | 1590 | 2690 | ||||
| 2025-11-17 01:30 | 3650 (2010) | 371 (2011) | 976 | 382 | 398 | 461 | 667 | 1280 | 1590 | 2690 | ||||
| 2025-11-17 00:30 | 3650 (2010) | 371 (2011) | 976 | 382 | 398 | 461 | 667 | 1280 | 1590 | 2690 | ||||
| 2025-11-16 23:30 | 3650 (2010) | 371 (2011) | 976 | 382 | 398 | 461 | 667 | 1280 | 1590 | 2690 | ||||
| 2025-11-16 22:30 | 3630 (2010) | 360 (2011) | 860 | 377 | 400 | 459 | 572 | 942 | 961 | 2350 | ||||
| 2025-11-16 21:30 | 3630 (2010) | 360 (2011) | 860 | 377 | 400 | 459 | 572 | 942 | 961 | 2350 | ||||
| 2025-11-16 20:30 | 3630 (2010) | 360 (2011) | 860 | 377 | 400 | 459 | 572 | 942 | 961 | 2350 | ||||
| 2025-11-16 19:30 | 3630 (2010) | 360 (2011) | 860 | 377 | 400 | 459 | 572 | 942 | 961 | 2350 | ||||
| 2025-11-16 18:30 | 3630 (2010) | 360 (2011) | 860 | 377 | 400 | 459 | 572 | 942 | 961 | 2350 | ||||
| 2025-11-16 17:30 | 3630 (2010) | 360 (2011) | 860 | 377 | 400 | 459 | 572 | 942 | 961 | 2350 | ||||
| 2025-11-16 16:30 | 3630 (2010) | 360 (2011) | 860 | 377 | 400 | 459 | 572 | 942 | 961 | 2350 | ||||
| 2025-11-16 15:30 | 3630 (2010) | 360 (2011) | 860 | 377 | 400 | 459 | 572 | 942 | 961 | 2350 | ||||
| 2025-11-16 14:30 | 3630 (2010) | 360 (2011) | 860 | 377 | 400 | 459 | 572 | 942 | 961 | 2350 | ||||
| 2025-11-16 13:30 | 3630 (2010) | 360 (2011) | 860 | 377 | 400 | 459 | 572 | 942 | 961 | 2350 | ||||
| 2025-11-16 12:30 | 3630 (2010) | 360 (2011) | 860 | 377 | 400 | 459 | 572 | 942 | 961 | 2350 | ||||
| 2025-11-16 11:30 | 3630 (2010) | 360 (2011) | 860 | 377 | 400 | 459 | 572 | 942 | 961 | 2350 | ||||
| 2025-11-16 10:30 | 3630 (2010) | 360 (2011) | 860 | 377 | 400 | 459 | 572 | 942 | 961 | 2350 | ||||
| 2025-11-16 09:30 | 3630 (2010) | 360 (2011) | 860 | 377 | 400 | 459 | 572 | 942 | 961 | 2350 | ||||
| 2025-11-16 08:30 | 3630 (2010) | 360 (2011) | 860 | 377 | 400 | 459 | 572 | 942 | 961 | 2350 | ||||
| 2025-11-16 07:30 | 3630 (2010) | 360 (2011) | 860 | 377 | 400 | 459 | 572 | 942 | 961 | 2350 | ||||
| 2025-11-16 06:30 | 3630 (2010) | 360 (2011) | 860 | 377 | 400 | 459 | 572 | 942 | 961 | 2350 | ||||
| 2025-11-16 05:30 | 3630 (2010) | 360 (2011) | 860 | 377 | 400 | 459 | 572 | 942 | 961 | 2350 | ||||
| 2025-11-16 04:30 | 3630 (2010) | 360 (2011) | 860 | 377 | 400 | 459 | 572 | 942 | 961 | 2350 | ||||
| 2025-11-16 03:30 | 3630 (2010) | 360 (2011) | 860 | 377 | 400 | 459 | 572 | 942 | 961 | 2350 | ||||
| 2025-11-16 02:30 | 3630 (2010) | 360 (2011) | 860 | 377 | 400 | 459 | 572 | 942 | 961 | 2350 | ||||
| 2025-11-16 01:30 | 3630 (2010) | 360 (2011) | 860 | 377 | 400 | 459 | 572 | 942 | 961 | 2350 | ||||
| 2025-11-16 00:30 | 3630 (2010) | 360 (2011) | 860 | 377 | 400 | 459 | 572 | 942 | 961 | 2350 | ||||
| 2025-11-15 23:30 | 3630 (2010) | 360 (2011) | 860 | 377 | 400 | 459 | 572 | 942 | 961 | 2350 | ||||
| 2025-11-15 22:30 | 3560 (2010) | 357 (2011) | 856 | 376 | 408 | 449 | 608 | 933 | 938 | 2300 | ||||
| 2025-11-15 21:30 | 3560 (2010) | 357 (2011) | 856 | 376 | 408 | 449 | 608 | 933 | 938 | 2300 | ||||
| 2025-11-15 20:30 | 3560 (2010) | 357 (2011) | 856 | 376 | 408 | 449 | 608 | 933 | 938 | 2300 | ||||
| 2025-11-15 19:30 | 3560 (2010) | 357 (2011) | 856 | 376 | 408 | 449 | 608 | 933 | 938 | 2300 | ||||
| 2025-11-15 18:30 | 3560 (2010) | 357 (2011) | 856 | 376 | 408 | 449 | 608 | 933 | 938 | 2300 | ||||
| 2025-11-15 17:30 | 3560 (2010) | 357 (2011) | 856 | 376 | 408 | 449 | 608 | 933 | 938 | 2300 | ||||
| 2025-11-15 16:30 | 3560 (2010) | 357 (2011) | 856 | 376 | 408 | 449 | 608 | 933 | 938 | 2300 | ||||
| 2025-11-15 15:30 | 3560 (2010) | 357 (2011) | 856 | 376 | 408 | 449 | 608 | 933 | 938 | 2300 | ||||
| 2025-11-15 14:30 | 3560 (2010) | 357 (2011) | 856 | 376 | 408 | 449 | 608 | 933 | 938 | 2300 | ||||
| 2025-11-15 13:30 | 3560 (2010) | 357 (2011) | 856 | 376 | 408 | 449 | 608 | 933 | 938 | 2300 | ||||
| 2025-11-15 12:30 | 3560 (2010) | 357 (2011) | 856 | 376 | 408 | 449 | 608 | 933 | 938 | 2300 | ||||
| 2025-11-15 11:30 | 3560 (2010) | 357 (2011) | 856 | 376 | 408 | 449 | 608 | 933 | 938 | 2300 | ||||
| 2025-11-15 10:30 | 3560 (2010) | 357 (2011) | 856 | 376 | 408 | 449 | 608 | 933 | 938 | 2300 | ||||
| 2025-11-15 09:30 | 3560 (2010) | 357 (2011) | 856 | 376 | 408 | 449 | 608 | 933 | 938 | 2300 | ||||
| 2025-11-15 08:30 | 3560 (2010) | 357 (2011) | 856 | 376 | 408 | 449 | 608 | 933 | 938 | 2300 | ||||
| 2025-11-15 07:30 | 3560 (2010) | 357 (2011) | 856 | 376 | 408 | 449 | 608 | 933 | 938 | 2300 | ||||
| 2025-11-15 06:30 | 3560 (2010) | 357 (2011) | 856 | 376 | 408 | 449 | 608 | 933 | 938 | 2300 | ||||
| 2025-11-15 05:30 | 3560 (2010) | 357 (2011) | 856 | 376 | 408 | 449 | 608 | 933 | 938 | 2300 | ||||
| 2025-11-15 04:30 | 3560 (2010) | 357 (2011) | 856 | 376 | 408 | 449 | 608 | 933 | 938 | 2300 | ||||
| 2025-11-15 03:30 | 3560 (2010) | 357 (2011) | 856 | 376 | 408 | 449 | 608 | 933 | 938 | 2300 | ||||
| 2025-11-15 02:30 | 3560 (2010) | 357 (2011) | 856 | 376 | 408 | 449 | 608 | 933 | 938 | 2300 | ||||
| 2025-11-15 01:30 | 3560 (2010) | 357 (2011) | 856 | 376 | 408 | 449 | 608 | 933 | 938 | 2300 | ||||
| 2025-11-15 00:30 | 3560 (2010) | 357 (2011) | 856 | 376 | 408 | 449 | 608 | 933 | 938 | 2300 | ||||
| 2025-11-14 23:30 | 3560 (2010) | 357 (2011) | 856 | 376 | 408 | 449 | 608 | 933 | 938 | 2300 | ||||
| 2025-11-14 22:30 | 3590 (2010) | 356 (2011) | 868 | 375 | 407 | 449 | 585 | 922 | 958 | 2530 | ||||
| 2025-11-14 21:30 | 3590 (2010) | 356 (2011) | 868 | 375 | 407 | 449 | 585 | 922 | 958 | 2530 | ||||
| 2025-11-14 20:30 | 3590 (2010) | 356 (2011) | 868 | 375 | 407 | 449 | 585 | 922 | 958 | 2530 | ||||
| 2025-11-14 19:30 | 3590 (2010) | 356 (2011) | 868 | 375 | 407 | 449 | 585 | 922 | 958 | 2530 | ||||
| 2025-11-14 18:30 | 3590 (2010) | 356 (2011) | 868 | 375 | 407 | 449 | 585 | 922 | 958 | 2530 | ||||
| 2025-11-14 17:30 | 3590 (2010) | 356 (2011) | 868 | 375 | 407 | 449 | 585 | 922 | 958 | 2530 | ||||
| 2025-11-14 16:30 | 3590 (2010) | 356 (2011) | 868 | 375 | 407 | 449 | 585 | 922 | 958 | 2530 | ||||
| 2025-11-14 15:30 | 3590 (2010) | 356 (2011) | 868 | 375 | 407 | 449 | 585 | 922 | 958 | 2530 | ||||
| 2025-11-14 14:30 | 3590 (2010) | 356 (2011) | 868 | 375 | 407 | 449 | 585 | 922 | 958 | 2530 | ||||
| 2025-11-14 13:30 | 3590 (2010) | 356 (2011) | 868 | 375 | 407 | 449 | 585 | 922 | 958 | 2530 | ||||
| 2025-11-14 12:30 | 3590 (2010) | 356 (2011) | 868 | 375 | 407 | 449 | 585 | 922 | 958 | 2530 | ||||
| 2025-11-14 11:30 | 3590 (2010) | 356 (2011) | 868 | 375 | 407 | 449 | 585 | 922 | 958 | 2530 | ||||
| 2025-11-14 10:30 | 3590 (2010) | 356 (2011) | 868 | 375 | 407 | 449 | 585 | 922 | 958 | 2530 | ||||
| 2025-11-14 09:30 | 3590 (2010) | 356 (2011) | 868 | 375 | 407 | 449 | 585 | 922 | 958 | 2530 | ||||
| 2025-11-14 08:30 | 3590 (2010) | 356 (2011) | 868 | 375 | 407 | 449 | 585 | 922 | 958 | 2530 | ||||
| 2025-11-14 07:30 | 3590 (2010) | 356 (2011) | 868 | 375 | 407 | 449 | 585 | 922 | 958 | 2530 | ||||
| 2025-11-14 06:30 | 3590 (2010) | 356 (2011) | 868 | 375 | 407 | 449 | 585 | 922 | 958 | 2530 | ||||
| 2025-11-14 05:30 | 3590 (2010) | 356 (2011) | 868 | 375 | 407 | 449 | 585 | 922 | 958 | 2530 | ||||
| 2025-11-14 04:30 | 3590 (2010) | 356 (2011) | 868 | 375 | 407 | 449 | 585 | 922 | 958 | 2530 | ||||
| 2025-11-14 03:30 | 3590 (2010) | 356 (2011) | 868 | 375 | 407 | 449 | 585 | 922 | 958 | 2530 | ||||
| 2025-11-14 02:30 | 3590 (2010) | 356 (2011) | 868 | 375 | 407 | 449 | 585 | 922 | 958 | 2530 | ||||
| 2025-11-14 01:30 | 3590 (2010) | 356 (2011) | 868 | 375 | 407 | 449 | 585 | 922 | 958 | 2530 | ||||
| 2025-11-14 00:30 | 3590 (2010) | 356 (2011) | 868 | 375 | 407 | 449 | 585 | 922 | 958 | 2530 | ||||
| 2025-11-13 23:30 | 3590 (2010) | 356 (2011) | 868 | 375 | 407 | 449 | 585 | 922 | 958 | 2530 | ||||
| 2025-11-13 22:30 | 3560 (2010) | 354 (2011) | 849 | 372 | 436 | 455 | 575 | 816 | 951 | 2530 | ||||
| 2025-11-13 21:30 | 3560 (2010) | 354 (2011) | 849 | 372 | 436 | 455 | 575 | 816 | 951 | 2530 | ||||
| 2025-11-13 20:30 | 3560 (2010) | 354 (2011) | 849 | 372 | 436 | 455 | 575 | 816 | 951 | 2530 | ||||
| 2025-11-13 19:30 | 3560 (2010) | 354 (2011) | 849 | 372 | 436 | 455 | 575 | 816 | 951 | 2530 | ||||
| 2025-11-13 18:30 | 3560 (2010) | 354 (2011) | 849 | 372 | 436 | 455 | 575 | 816 | 951 | 2530 | ||||
| 2025-11-13 17:30 | 3560 (2010) | 354 (2011) | 849 | 372 | 436 | 455 | 575 | 816 | 951 | 2530 | ||||
| 2025-11-13 16:30 | 3560 (2010) | 354 (2011) | 849 | 372 | 436 | 455 | 575 | 816 | 951 | 2530 | ||||
| 2025-11-13 15:30 | 3560 (2010) | 354 (2011) | 849 | 372 | 436 | 455 | 575 | 816 | 951 | 2530 | ||||
| 2025-11-13 14:30 | 3560 (2010) | 354 (2011) | 849 | 372 | 436 | 455 | 575 | 816 | 951 | 2530 | ||||
| 2025-11-13 13:30 | 3.56 | 3560 (2010) | 354 (2011) | 849 | 372 | 436 | 455 | 575 | 816 | 951 | 2530 | |||
| 2025-11-13 12:30 | 3.56 | 3560 (2010) | 354 (2011) | 849 | 372 | 436 | 455 | 575 | 816 | 951 | 2530 | |||
| 2025-11-13 11:30 | 3.56 | 3560 (2010) | 354 (2011) | 849 | 372 | 436 | 455 | 575 | 816 | 951 | 2530 | |||
| 2025-11-13 10:30 | 3.56 | 3560 (2010) | 354 (2011) | 849 | 372 | 436 | 455 | 575 | 816 | 951 | 2530 | |||
| 2025-11-13 09:30 | 3.56 | 3560 (2010) | 354 (2011) | 849 | 372 | 436 | 455 | 575 | 816 | 951 | 2530 | |||
| 2025-11-13 08:30 | 3.56 | 3560 (2010) | 354 (2011) | 849 | 372 | 436 | 455 | 575 | 816 | 951 | 2530 | |||
| 2025-11-13 07:30 | 3.56 | 3560 (2010) | 354 (2011) | 849 | 372 | 436 | 455 | 575 | 816 | 951 | 2530 | |||
| 2025-11-13 06:30 | 3.56 | 3560 (2010) | 354 (2011) | 849 | 372 | 436 | 455 | 575 | 816 | 951 | 2530 | |||
| 2025-11-13 05:30 | 3.56 | 3560 (2010) | 354 (2011) | 849 | 372 | 436 | 455 | 575 | 816 | 951 | 2530 | |||
| 2025-11-13 04:30 | 3.56 | 3560 (2010) | 354 (2011) | 849 | 372 | 436 | 455 | 575 | 816 | 951 | 2530 | |||
| 2025-11-13 03:30 | 3.56 | 3560 (2010) | 354 (2011) | 849 | 372 | 436 | 455 | 575 | 816 | 951 | 2530 | |||
| 2025-11-13 02:30 | 3.56 | 3560 (2010) | 354 (2011) | 849 | 372 | 436 | 455 | 575 | 816 | 951 | 2530 | |||
| 2025-11-13 01:30 | 3.56 | 3560 (2010) | 354 (2011) | 849 | 372 | 436 | 455 | 575 | 816 | 951 | 2530 | |||
| 2025-11-13 00:30 | 3.56 | 3560 (2010) | 354 (2011) | 849 | 372 | 436 | 455 | 575 | 816 | 951 | 2530 | |||
| 2025-11-12 23:30 | 3.56 | 3560 (2010) | 354 (2011) | 849 | 372 | 436 | 455 | 575 | 816 | 951 | 2530 | |||
| 2025-11-12 22:30 | 3.56 | 3580 (2010) | 326 (2011) | 818 | 358 | 437 | 462 | 601 | 842 | 968 | 2300 | |||
| 2025-11-12 21:30 | 3.56 | 3580 (2010) | 326 (2011) | 818 | 358 | 437 | 462 | 601 | 842 | 968 | 2300 | |||
| 2025-11-12 20:30 | 3.56 | 3580 (2010) | 326 (2011) | 818 | 358 | 437 | 462 | 601 | 842 | 968 | 2300 | |||
| 2025-11-12 19:30 | 3.57 | 3580 (2010) | 326 (2011) | 818 | 358 | 437 | 462 | 601 | 842 | 968 | 2300 | |||
| 2025-11-12 18:30 | 3.57 | 3580 (2010) | 326 (2011) | 818 | 358 | 437 | 462 | 601 | 842 | 968 | 2300 | |||
| 2025-11-12 17:30 | 3.57 | 3580 (2010) | 326 (2011) | 818 | 358 | 437 | 462 | 601 | 842 | 968 | 2300 | |||
| 2025-11-12 16:30 | 3.57 | 3580 (2010) | 326 (2011) | 818 | 358 | 437 | 462 | 601 | 842 | 968 | 2300 | |||
| 2025-11-12 15:30 | 3.57 | 3580 (2010) | 326 (2011) | 818 | 358 | 437 | 462 | 601 | 842 | 968 | 2300 | |||
| 2025-11-12 14:30 | 3.57 | 3580 (2010) | 326 (2011) | 818 | 358 | 437 | 462 | 601 | 842 | 968 | 2300 | |||
| 2025-11-12 13:30 | 3.57 | 3580 (2010) | 326 (2011) | 818 | 358 | 437 | 462 | 601 | 842 | 968 | 2300 | |||
| 2025-11-12 12:30 | 3.57 | 3580 (2010) | 326 (2011) | 818 | 358 | 437 | 462 | 601 | 842 | 968 | 2300 | |||
| 2025-11-12 11:30 | 3.57 | 3580 (2010) | 326 (2011) | 818 | 358 | 437 | 462 | 601 | 842 | 968 | 2300 | |||
| 2025-11-12 10:30 | 3.57 | 3580 (2010) | 326 (2011) | 818 | 358 | 437 | 462 | 601 | 842 | 968 | 2300 | |||
| 2025-11-12 09:30 | 3.56 | 3580 (2010) | 326 (2011) | 818 | 358 | 437 | 462 | 601 | 842 | 968 | 2300 | |||
| 2025-11-12 08:30 | 3.56 | 3580 (2010) | 326 (2011) | 818 | 358 | 437 | 462 | 601 | 842 | 968 | 2300 | |||
| 2025-11-12 07:30 | 3.56 | 3580 (2010) | 326 (2011) | 818 | 358 | 437 | 462 | 601 | 842 | 968 | 2300 | |||
| 2025-11-12 06:30 | 3.56 | 3580 (2010) | 326 (2011) | 818 | 358 | 437 | 462 | 601 | 842 | 968 | 2300 | |||
| 2025-11-12 05:30 | 3.56 | 3580 (2010) | 326 (2011) | 818 | 358 | 437 | 462 | 601 | 842 | 968 | 2300 | |||
| 2025-11-12 04:30 | 3.56 | 3580 (2010) | 326 (2011) | 818 | 358 | 437 | 462 | 601 | 842 | 968 | 2300 | |||
| 2025-11-12 03:30 | 3.56 | 3580 (2010) | 326 (2011) | 818 | 358 | 437 | 462 | 601 | 842 | 968 | 2300 | |||
| 2025-11-12 02:30 | 3.56 | 3580 (2010) | 326 (2011) | 818 | 358 | 437 | 462 | 601 | 842 | 968 | 2300 | |||
| 2025-11-12 01:30 | 3.56 | 3580 (2010) | 326 (2011) | 818 | 358 | 437 | 462 | 601 | 842 | 968 | 2300 | |||
| 2025-11-12 00:30 | 3.56 | 3580 (2010) | 326 (2011) | 818 | 358 | 437 | 462 | 601 | 842 | 968 | 2300 | |||
| 2025-11-11 23:30 | 3.56 | 3580 (2010) | 326 (2011) | 818 | 358 | 437 | 462 | 601 | 842 | 968 | 2300 | |||
| 2025-11-11 22:30 | 3.56 | 3590 (2010) | 319 (2011) | 820 | 357 | 431 | 460 | 612 | 849 | 870 | 2320 | |||
| 2025-11-11 21:30 | 3.56 | 3590 (2010) | 319 (2011) | 820 | 357 | 431 | 460 | 612 | 849 | 870 | 2320 | |||
| 2025-11-11 20:30 | 3.56 | 3590 (2010) | 319 (2011) | 820 | 357 | 431 | 460 | 612 | 849 | 870 | 2320 | |||
| 2025-11-11 19:30 | 3.56 | 3590 (2010) | 319 (2011) | 820 | 357 | 431 | 460 | 612 | 849 | 870 | 2320 | |||
| 2025-11-11 18:30 | 3.56 | 3590 (2010) | 319 (2011) | 820 | 357 | 431 | 460 | 612 | 849 | 870 | 2320 | |||
| 2025-11-11 17:30 | 3.56 | 3590 (2010) | 319 (2011) | 820 | 357 | 431 | 460 | 612 | 849 | 870 | 2320 | |||
| 2025-11-11 16:30 | 3.56 | 3590 (2010) | 319 (2011) | 820 | 357 | 431 | 460 | 612 | 849 | 870 | 2320 | |||
| 2025-11-11 15:30 | 3.57 | 3590 (2010) | 319 (2011) | 820 | 357 | 431 | 460 | 612 | 849 | 870 | 2320 | |||
| 2025-11-11 14:30 | 3.57 | 3590 (2010) | 319 (2011) | 820 | 357 | 431 | 460 | 612 | 849 | 870 | 2320 | |||
| 2025-11-11 13:30 | 3.56 | 3590 (2010) | 319 (2011) | 820 | 357 | 431 | 460 | 612 | 849 | 870 | 2320 | |||
| 2025-11-11 12:30 | 3.56 | 3590 (2010) | 319 (2011) | 820 | 357 | 431 | 460 | 612 | 849 | 870 | 2320 | |||
| 2025-11-11 11:30 | 3.56 | 3590 (2010) | 319 (2011) | 820 | 357 | 431 | 460 | 612 | 849 | 870 | 2320 | |||
| 2025-11-11 10:30 | 3.55 | 3590 (2010) | 319 (2011) | 820 | 357 | 431 | 460 | 612 | 849 | 870 | 2320 | |||
| 2025-11-11 09:30 | 3.55 | 3590 (2010) | 319 (2011) | 820 | 357 | 431 | 460 | 612 | 849 | 870 | 2320 | |||
| 2025-11-11 08:30 | 3.54 | 3590 (2010) | 319 (2011) | 820 | 357 | 431 | 460 | 612 | 849 | 870 | 2320 | |||
| 2025-11-11 07:30 | 3.54 | 3590 (2010) | 319 (2011) | 820 | 357 | 431 | 460 | 612 | 849 | 870 | 2320 | |||
| 2025-11-11 06:30 | 3.54 | 3590 (2010) | 319 (2011) | 820 | 357 | 431 | 460 | 612 | 849 | 870 | 2320 | |||
| 2025-11-11 05:30 | 3.53 | 3590 (2010) | 319 (2011) | 820 | 357 | 431 | 460 | 612 | 849 | 870 | 2320 | |||
| 2025-11-11 04:30 | 3.53 | 3590 (2010) | 319 (2011) | 820 | 357 | 431 | 460 | 612 | 849 | 870 | 2320 | |||
| 2025-11-11 03:30 | 3.53 | 3590 (2010) | 319 (2011) | 820 | 357 | 431 | 460 | 612 | 849 | 870 | 2320 | |||
| 2025-11-11 02:30 | 3.52 | 3590 (2010) | 319 (2011) | 820 | 357 | 431 | 460 | 612 | 849 | 870 | 2320 | |||
| 2025-11-11 01:30 | 3.52 | 3590 (2010) | 319 (2011) | 820 | 357 | 431 | 460 | 612 | 849 | 870 | 2320 | |||
| 2025-11-11 00:30 | 3.51 | 3590 (2010) | 319 (2011) | 820 | 357 | 431 | 460 | 612 | 849 | 870 | 2320 | |||
| 2025-11-10 23:30 | 3.50 | 3590 (2010) | 319 (2011) | 820 | 357 | 431 | 460 | 612 | 849 | 870 | 2320 | |||
| 2025-11-10 22:30 | 3.50 | 3200 (2010) | 304 (2011) | 806 | 347 | 415 | 449 | 583 | 923 | 992 | 2120 | |||
| 2025-11-10 21:30 | 3.49 | 3200 (2010) | 304 (2011) | 806 | 347 | 415 | 449 | 583 | 923 | 992 | 2120 | |||
| 2025-11-10 20:30 | 3.47 | 3200 (2010) | 304 (2011) | 806 | 347 | 415 | 449 | 583 | 923 | 992 | 2120 | |||
| 2025-11-10 19:30 | 3.46 | 3200 (2010) | 304 (2011) | 806 | 347 | 415 | 449 | 583 | 923 | 992 | 2120 | |||
| 2025-11-10 18:30 | 3.44 | 3200 (2010) | 304 (2011) | 806 | 347 | 415 | 449 | 583 | 923 | 992 | 2120 | |||
| 2025-11-10 17:30 | 3.43 | 3200 (2010) | 304 (2011) | 806 | 347 | 415 | 449 | 583 | 923 | 992 | 2120 | |||
| 2025-11-10 16:30 | 3.42 | 3200 (2010) | 304 (2011) | 806 | 347 | 415 | 449 | 583 | 923 | 992 | 2120 | |||
| 2025-11-10 15:30 | 3.41 | 3200 (2010) | 304 (2011) | 806 | 347 | 415 | 449 | 583 | 923 | 992 | 2120 | |||
| 2025-11-10 14:30 | 3.41 | 3200 (2010) | 304 (2011) | 806 | 347 | 415 | 449 | 583 | 923 | 992 | 2120 | |||
| 2025-11-10 13:30 | 3.41 | 3200 (2010) | 304 (2011) | 806 | 347 | 415 | 449 | 583 | 923 | 992 | 2120 | |||
| 2025-11-10 12:30 | 3.41 | 3200 (2010) | 304 (2011) | 806 | 347 | 415 | 449 | 583 | 923 | 992 | 2120 | |||
| 2025-11-10 11:30 | 3.41 | 3200 (2010) | 304 (2011) | 806 | 347 | 415 | 449 | 583 | 923 | 992 | 2120 | |||
| 2025-11-10 10:30 | 3.41 | 3200 (2010) | 304 (2011) | 806 | 347 | 415 | 449 | 583 | 923 | 992 | 2120 | |||
| 2025-11-10 09:30 | 3.40 | 3200 (2010) | 304 (2011) | 806 | 347 | 415 | 449 | 583 | 923 | 992 | 2120 | |||
| 2025-11-10 08:30 | 3.41 | 3200 (2010) | 304 (2011) | 806 | 347 | 415 | 449 | 583 | 923 | 992 | 2120 | |||
| 2025-11-10 07:30 | 3.41 | 3200 (2010) | 304 (2011) | 806 | 347 | 415 | 449 | 583 | 923 | 992 | 2120 | |||
| 2025-11-10 06:30 | 3.41 | 3200 (2010) | 304 (2011) | 806 | 347 | 415 | 449 | 583 | 923 | 992 | 2120 | |||
| 2025-11-10 05:30 | 3.41 | 3200 (2010) | 304 (2011) | 806 | 347 | 415 | 449 | 583 | 923 | 992 | 2120 | |||
| 2025-11-10 04:30 | 3.41 | 3200 (2010) | 304 (2011) | 806 | 347 | 415 | 449 | 583 | 923 | 992 | 2120 | |||
| 2025-11-10 03:30 | 3.41 | 3200 (2010) | 304 (2011) | 806 | 347 | 415 | 449 | 583 | 923 | 992 | 2120 | |||
| 2025-11-10 02:30 | 3.41 | 3200 (2010) | 304 (2011) | 806 | 347 | 415 | 449 | 583 | 923 | 992 | 2120 | |||
| 2025-11-10 01:30 | 3.41 | 3200 (2010) | 304 (2011) | 806 | 347 | 415 | 449 | 583 | 923 | 992 | 2120 | |||
| 2025-11-10 00:30 | 3.41 | 3200 (2010) | 304 (2011) | 806 | 347 | 415 | 449 | 583 | 923 | 992 | 2120 | |||
| 2025-11-09 23:30 | 3.41 | 3200 (2010) | 304 (2011) | 806 | 347 | 415 | 449 | 583 | 923 | 992 | 2120 | |||
| 2025-11-09 22:30 | 3.42 | 2250 (2010) | 302 (2011) | 801 | 345 | 392 | 407 | 578 | 1050 | 1070 | 1910 | |||
| 2025-11-09 21:30 | 3.42 | 2250 (2010) | 302 (2011) | 801 | 345 | 392 | 407 | 578 | 1050 | 1070 | 1910 | |||
| 2025-11-09 20:30 | 3.42 | 2250 (2010) | 302 (2011) | 801 | 345 | 392 | 407 | 578 | 1050 | 1070 | 1910 | |||
| 2025-11-09 19:30 | 3.42 | 2250 (2010) | 302 (2011) | 801 | 345 | 392 | 407 | 578 | 1050 | 1070 | 1910 | |||
| 2025-11-09 18:30 | 3.43 | 2250 (2010) | 302 (2011) | 801 | 345 | 392 | 407 | 578 | 1050 | 1070 | 1910 | |||
| 2025-11-09 17:30 | 3.43 | 2250 (2010) | 302 (2011) | 801 | 345 | 392 | 407 | 578 | 1050 | 1070 | 1910 | |||
| 2025-11-09 16:30 | 3.43 | 2250 (2010) | 302 (2011) | 801 | 345 | 392 | 407 | 578 | 1050 | 1070 | 1910 | |||
| 2025-11-09 15:30 | 3.43 | 2250 (2010) | 302 (2011) | 801 | 345 | 392 | 407 | 578 | 1050 | 1070 | 1910 | |||
| 2025-11-09 14:30 | 3.43 | 2250 (2010) | 302 (2011) | 801 | 345 | 392 | 407 | 578 | 1050 | 1070 | 1910 | |||
| 2025-11-09 13:30 | 3.43 | 2250 (2010) | 302 (2011) | 801 | 345 | 392 | 407 | 578 | 1050 | 1070 | 1910 | |||
| 2025-11-09 12:30 | 3.43 | 2250 (2010) | 302 (2011) | 801 | 345 | 392 | 407 | 578 | 1050 | 1070 | 1910 | |||
| 2025-11-09 11:30 | 3.44 | 2250 (2010) | 302 (2011) | 801 | 345 | 392 | 407 | 578 | 1050 | 1070 | 1910 | |||
| 2025-11-09 10:30 | 3.43 | 2250 (2010) | 302 (2011) | 801 | 345 | 392 | 407 | 578 | 1050 | 1070 | 1910 | |||
| 2025-11-09 09:30 | 3.44 | 2250 (2010) | 302 (2011) | 801 | 345 | 392 | 407 | 578 | 1050 | 1070 | 1910 | |||
| 2025-11-09 08:30 | 3.43 | 2250 (2010) | 302 (2011) | 801 | 345 | 392 | 407 | 578 | 1050 | 1070 | 1910 | |||
| 2025-11-09 07:30 | 3.43 | 2250 (2010) | 302 (2011) | 801 | 345 | 392 | 407 | 578 | 1050 | 1070 | 1910 | |||
| 2025-11-09 06:30 | 3.43 | 2250 (2010) | 302 (2011) | 801 | 345 | 392 | 407 | 578 | 1050 | 1070 | 1910 | |||
| 2025-11-09 05:30 | 3.43 | 2250 (2010) | 302 (2011) | 801 | 345 | 392 | 407 | 578 | 1050 | 1070 | 1910 | |||
| 2025-11-09 04:30 | 3.44 | 2250 (2010) | 302 (2011) | 801 | 345 | 392 | 407 | 578 | 1050 | 1070 | 1910 | |||
| 2025-11-09 03:30 | 3.43 | 2250 (2010) | 302 (2011) | 801 | 345 | 392 | 407 | 578 | 1050 | 1070 | 1910 | |||
| 2025-11-09 02:30 | 3.44 | 2250 (2010) | 302 (2011) | 801 | 345 | 392 | 407 | 578 | 1050 | 1070 | 1910 | |||
| 2025-11-09 01:30 | 3.44 | 2250 (2010) | 302 (2011) | 801 | 345 | 392 | 407 | 578 | 1050 | 1070 | 1910 | |||
| 2025-11-09 00:30 | 3.44 | 2250 (2010) | 302 (2011) | 801 | 345 | 392 | 407 | 578 | 1050 | 1070 | 1910 | |||
| 2025-11-08 23:30 | 3.44 | 2250 (2010) | 302 (2011) | 801 | 345 | 392 | 407 | 578 | 1050 | 1070 | 1910 |
A total of 296 rows are displayed for years 2009 through 2022.